sensor_id;sensor_type;location;lat;lon;timestamp;temperature;humidity
27534;DHT22;14973;51.460;7.008;2023-07-28T00:01:05;17.40;99.90
27534;DHT22;14973;51.460;7.008;2023-07-28T00:03:30;17.50;99.90
27534;DHT22;14973;51.460;7.008;2023-07-28T00:05:56;17.50;99.90
27534;DHT22;14973;51.460;7.008;2023-07-28T00:08:22;17.50;99.90
27534;DHT22;14973;51.460;7.008;2023-07-28T00:10:47;17.50;99.90
27534;DHT22;14973;51.460;7.008;2023-07-28T00:13:13;17.40;99.90
27534;DHT22;14973;51.460;7.008;2023-07-28T00:15:38;17.50;99.90
27534;DHT22;14973;51.460;7.008;2023-07-28T00:18:04;17.50;99.90
27534;DHT22;14973;51.460;7.008;2023-07-28T00:20:29;17.50;99.90
27534;DHT22;14973;51.460;7.008;2023-07-28T00:22:55;17.50;99.90
27534;DHT22;14973;51.460;7.008;2023-07-28T00:25:20;17.40;99.90
27534;DHT22;14973;51.460;7.008;2023-07-28T00:27:47;17.40;99.90
27534;DHT22;14973;51.460;7.008;2023-07-28T00:30:13;17.40;99.90
27534;DHT22;14973;51.460;7.008;2023-07-28T00:32:38;17.50;99.90
27534;DHT22;14973;51.460;7.008;2023-07-28T00:35:04;17.40;99.90
27534;DHT22;14973;51.460;7.008;2023-07-28T00:37:30;17.40;99.90
27534;DHT22;14973;51.460;7.008;2023-07-28T00:39:55;17.50;99.90
27534;DHT22;14973;51.460;7.008;2023-07-28T00:42:21;17.50;99.90
27534;DHT22;14973;51.460;7.008;2023-07-28T00:44:46;17.50;99.90
27534;DHT22;14973;51.460;7.008;2023-07-28T00:47:12;17.50;99.90
27534;DHT22;14973;51.460;7.008;2023-07-28T00:49:40;17.50;99.90
27534;DHT22;14973;51.460;7.008;2023-07-28T00:52:07;17.50;99.90
27534;DHT22;14973;51.460;7.008;2023-07-28T00:54:33;17.50;99.90
27534;DHT22;14973;51.460;7.008;2023-07-28T00:57:00;17.40;99.90
27534;DHT22;14973;51.460;7.008;2023-07-28T00:59:27;17.40;99.90
27534;DHT22;14973;51.460;7.008;2023-07-28T01:01:52;17.30;99.90
27534;DHT22;14973;51.460;7.008;2023-07-28T01:04:18;17.40;99.90
27534;DHT22;14973;51.460;7.008;2023-07-28T01:06:53;17.40;99.90
27534;DHT22;14973;51.460;7.008;2023-07-28T01:09:26;17.30;99.90
27534;DHT22;14973;51.460;7.008;2023-07-28T01:11:55;17.30;99.90
27534;DHT22;14973;51.460;7.008;2023-07-28T01:14:21;17.40;99.90
27534;DHT22;14973;51.460;7.008;2023-07-28T01:16:47;17.30;99.90
27534;DHT22;14973;51.460;7.008;2023-07-28T01:19:14;17.40;99.90
27534;DHT22;14973;51.460;7.008;2023-07-28T01:21:42;17.40;99.90
27534;DHT22;14973;51.460;7.008;2023-07-28T01:24:15;17.40;99.90
27534;DHT22;14973;51.460;7.008;2023-07-28T01:26:45;17.40;99.90
27534;DHT22;14973;51.460;7.008;2023-07-28T01:29:12;17.40;99.90
27534;DHT22;14973;51.460;7.008;2023-07-28T01:31:40;17.30;99.90
27534;DHT22;14973;51.460;7.008;2023-07-28T01:34:05;17.30;99.90
27534;DHT22;14973;51.460;7.008;2023-07-28T01:36:31;17.40;99.90
27534;DHT22;14973;51.460;7.008;2023-07-28T01:38:56;17.30;99.90
27534;DHT22;14973;51.460;7.008;2023-07-28T01:41:22;17.20;99.90
27534;DHT22;14973;51.460;7.008;2023-07-28T01:43:48;17.30;99.90
27534;DHT22;14973;51.460;7.008;2023-07-28T01:46:13;17.30;99.90
27534;DHT22;14973;51.460;7.008;2023-07-28T01:48:39;17.40;99.90
27534;DHT22;14973;51.460;7.008;2023-07-28T01:51:04;17.30;99.90
27534;DHT22;14973;51.460;7.008;2023-07-28T01:53:30;17.40;99.90
27534;DHT22;14973;51.460;7.008;2023-07-28T01:55:55;17.40;99.90
27534;DHT22;14973;51.460;7.008;2023-07-28T01:58:21;17.40;99.90
27534;DHT22;14973;51.460;7.008;2023-07-28T02:00:47;17.30;99.90
27534;DHT22;14973;51.460;7.008;2023-07-28T02:03:12;17.40;99.90
27534;DHT22;14973;51.460;7.008;2023-07-28T02:05:38;17.40;99.90
27534;DHT22;14973;51.460;7.008;2023-07-28T02:08:03;17.40;99.90
27534;DHT22;14973;51.460;7.008;2023-07-28T02:10:29;17.40;99.90
27534;DHT22;14973;51.460;7.008;2023-07-28T02:12:55;17.40;99.90
27534;DHT22;14973;51.460;7.008;2023-07-28T02:15:21;17.30;99.90
27534;DHT22;14973;51.460;7.008;2023-07-28T02:17:46;17.40;99.90
27534;DHT22;14973;51.460;7.008;2023-07-28T02:20:12;17.30;99.90
27534;DHT22;14973;51.460;7.008;2023-07-28T02:22:42;17.40;99.90
27534;DHT22;14973;51.460;7.008;2023-07-28T02:25:08;17.30;99.90
27534;DHT22;14973;51.460;7.008;2023-07-28T02:27:34;17.40;99.90
27534;DHT22;14973;51.460;7.008;2023-07-28T02:29:59;17.40;99.90
27534;DHT22;14973;51.460;7.008;2023-07-28T02:32:27;17.40;99.90
27534;DHT22;14973;51.460;7.008;2023-07-28T02:34:53;17.40;99.90
27534;DHT22;14973;51.460;7.008;2023-07-28T02:37:19;17.40;99.90
27534;DHT22;14973;51.460;7.008;2023-07-28T02:39:44;17.40;99.90
27534;DHT22;14973;51.460;7.008;2023-07-28T02:42:11;17.50;99.90
27534;DHT22;14973;51.460;7.008;2023-07-28T02:44:36;17.40;99.90
27534;DHT22;14973;51.460;7.008;2023-07-28T02:47:02;17.40;99.90
27534;DHT22;14973;51.460;7.008;2023-07-28T02:49:28;17.40;99.90
27534;DHT22;14973;51.460;7.008;2023-07-28T02:51:53;17.50;99.90
27534;DHT22;14973;51.460;7.008;2023-07-28T02:54:19;17.40;99.90
27534;DHT22;14973;51.460;7.008;2023-07-28T02:56:44;17.50;99.90
27534;DHT22;14973;51.460;7.008;2023-07-28T02:59:10;17.40;99.90
27534;DHT22;14973;51.460;7.008;2023-07-28T03:01:35;17.50;99.90
27534;DHT22;14973;51.460;7.008;2023-07-28T03:04:01;17.50;99.90
27534;DHT22;14973;51.460;7.008;2023-07-28T03:06:27;17.50;99.90
27534;DHT22;14973;51.460;7.008;2023-07-28T03:08:53;17.50;99.90
27534;DHT22;14973;51.460;7.008;2023-07-28T03:11:19;17.40;99.90
27534;DHT22;14973;51.460;7.008;2023-07-28T03:13:44;17.50;99.90
27534;DHT22;14973;51.460;7.008;2023-07-28T03:16:10;17.50;99.90
27534;DHT22;14973;51.460;7.008;2023-07-28T03:18:35;17.50;99.90
27534;DHT22;14973;51.460;7.008;2023-07-28T03:21:01;17.50;99.90
27534;DHT22;14973;51.460;7.008;2023-07-28T03:23:27;17.50;99.90
27534;DHT22;14973;51.460;7.008;2023-07-28T03:25:53;17.60;99.90
27534;DHT22;14973;51.460;7.008;2023-07-28T03:28:18;17.60;99.90
27534;DHT22;14973;51.460;7.008;2023-07-28T03:30:44;17.50;99.90
27534;DHT22;14973;51.460;7.008;2023-07-28T03:33:10;17.50;99.90
27534;DHT22;14973;51.460;7.008;2023-07-28T03:35:35;17.50;99.90
27534;DHT22;14973;51.460;7.008;2023-07-28T03:38:01;17.50;99.90
27534;DHT22;14973;51.460;7.008;2023-07-28T03:40:26;17.50;99.90
27534;DHT22;14973;51.460;7.008;2023-07-28T03:42:52;17.50;99.90
27534;DHT22;14973;51.460;7.008;2023-07-28T03:45:18;17.50;99.90
27534;DHT22;14973;51.460;7.008;2023-07-28T03:47:44;17.50;99.90
27534;DHT22;14973;51.460;7.008;2023-07-28T03:50:10;17.50;99.90
27534;DHT22;14973;51.460;7.008;2023-07-28T03:52:35;17.50;99.90
27534;DHT22;14973;51.460;7.008;2023-07-28T03:55:01;17.50;99.90
27534;DHT22;14973;51.460;7.008;2023-07-28T03:57:27;17.50;99.90
27534;DHT22;14973;51.460;7.008;2023-07-28T03:59:52;17.50;99.90
27534;DHT22;14973;51.460;7.008;2023-07-28T04:02:18;17.50;99.90
27534;DHT22;14973;51.460;7.008;2023-07-28T04:04:43;17.60;99.90
27534;DHT22;14973;51.460;7.008;2023-07-28T04:07:09;17.60;99.90
27534;DHT22;14973;51.460;7.008;2023-07-28T04:09:35;17.60;99.90
27534;DHT22;14973;51.460;7.008;2023-07-28T04:12:00;17.60;99.90
27534;DHT22;14973;51.460;7.008;2023-07-28T04:14:26;17.60;99.90
27534;DHT22;14973;51.460;7.008;2023-07-28T04:16:51;17.60;99.90
27534;DHT22;14973;51.460;7.008;2023-07-28T04:19:17;17.70;99.90
27534;DHT22;14973;51.460;7.008;2023-07-28T04:21:42;17.70;99.90
27534;DHT22;14973;51.460;7.008;2023-07-28T04:24:09;17.70;99.90
27534;DHT22;14973;51.460;7.008;2023-07-28T04:26:35;17.70;99.90
27534;DHT22;14973;51.460;7.008;2023-07-28T04:29:01;17.80;99.90
27534;DHT22;14973;51.460;7.008;2023-07-28T04:31:26;17.80;99.90
27534;DHT22;14973;51.460;7.008;2023-07-28T04:33:52;17.90;99.90
27534;DHT22;14973;51.460;7.008;2023-07-28T04:36:18;17.80;99.90
27534;DHT22;14973;51.460;7.008;2023-07-28T04:38:43;17.80;99.90
27534;DHT22;14973;51.460;7.008;2023-07-28T04:41:09;17.90;99.90
27534;DHT22;14973;51.460;7.008;2023-07-28T04:43:34;17.90;99.90
27534;DHT22;14973;51.460;7.008;2023-07-28T04:46:00;17.90;99.90
27534;DHT22;14973;51.460;7.008;2023-07-28T04:48:26;18.00;99.90
27534;DHT22;14973;51.460;7.008;2023-07-28T04:50:52;17.90;99.90
27534;DHT22;14973;51.460;7.008;2023-07-28T04:53:18;17.90;99.90
27534;DHT22;14973;51.460;7.008;2023-07-28T04:55:43;18.10;99.90
27534;DHT22;14973;51.460;7.008;2023-07-28T04:58:09;18.00;99.90
27534;DHT22;14973;51.460;7.008;2023-07-28T05:00:34;18.00;99.90
27534;DHT22;14973;51.460;7.008;2023-07-28T05:03:00;18.00;99.90
27534;DHT22;14973;51.460;7.008;2023-07-28T05:05:25;18.00;99.90
27534;DHT22;14973;51.460;7.008;2023-07-28T05:07:51;18.20;99.90
27534;DHT22;14973;51.460;7.008;2023-07-28T05:10:16;18.20;99.90
27534;DHT22;14973;51.460;7.008;2023-07-28T05:12:42;18.20;99.90
27534;DHT22;14973;51.460;7.008;2023-07-28T05:15:08;18.30;99.90
27534;DHT22;14973;51.460;7.008;2023-07-28T05:17:37;18.30;99.90
27534;DHT22;14973;51.460;7.008;2023-07-28T05:20:03;18.40;99.90
27534;DHT22;14973;51.460;7.008;2023-07-28T05:22:29;18.40;99.90
27534;DHT22;14973;51.460;7.008;2023-07-28T05:24:54;18.30;99.90
27534;DHT22;14973;51.460;7.008;2023-07-28T05:27:20;18.40;99.90
27534;DHT22;14973;51.460;7.008;2023-07-28T05:29:45;18.50;99.90
27534;DHT22;14973;51.460;7.008;2023-07-28T05:32:11;18.60;99.90
27534;DHT22;14973;51.460;7.008;2023-07-28T05:34:36;18.60;99.90
27534;DHT22;14973;51.460;7.008;2023-07-28T05:37:02;18.80;99.90
27534;DHT22;14973;51.460;7.008;2023-07-28T05:39:28;18.80;99.90
27534;DHT22;14973;51.460;7.008;2023-07-28T05:41:53;18.90;99.90
27534;DHT22;14973;51.460;7.008;2023-07-28T05:44:19;18.80;99.90
27534;DHT22;14973;51.460;7.008;2023-07-28T05:46:45;18.90;99.90
27534;DHT22;14973;51.460;7.008;2023-07-28T05:49:11;18.90;99.90
27534;DHT22;14973;51.460;7.008;2023-07-28T05:51:36;18.90;99.90
27534;DHT22;14973;51.460;7.008;2023-07-28T05:54:02;18.80;99.90
27534;DHT22;14973;51.460;7.008;2023-07-28T05:56:27;18.80;99.90
27534;DHT22;14973;51.460;7.008;2023-07-28T05:58:55;18.80;99.90
27534;DHT22;14973;51.460;7.008;2023-07-28T06:01:20;18.80;99.90
27534;DHT22;14973;51.460;7.008;2023-07-28T06:03:46;18.90;99.90
27534;DHT22;14973;51.460;7.008;2023-07-28T06:06:12;19.00;99.90
27534;DHT22;14973;51.460;7.008;2023-07-28T06:08:37;19.00;99.90
27534;DHT22;14973;51.460;7.008;2023-07-28T06:11:05;19.10;99.90
27534;DHT22;14973;51.460;7.008;2023-07-28T06:13:31;19.00;99.90
27534;DHT22;14973;51.460;7.008;2023-07-28T06:15:56;19.10;99.90
27534;DHT22;14973;51.460;7.008;2023-07-28T06:18:23;19.10;99.90
27534;DHT22;14973;51.460;7.008;2023-07-28T06:20:49;19.20;99.90
27534;DHT22;14973;51.460;7.008;2023-07-28T06:23:15;19.30;99.90
27534;DHT22;14973;51.460;7.008;2023-07-28T06:25:40;19.40;99.90
27534;DHT22;14973;51.460;7.008;2023-07-28T06:28:10;19.50;99.90
27534;DHT22;14973;51.460;7.008;2023-07-28T06:30:36;19.70;99.90
27534;DHT22;14973;51.460;7.008;2023-07-28T06:33:03;19.70;99.90
27534;DHT22;14973;51.460;7.008;2023-07-28T06:35:28;19.80;99.90
27534;DHT22;14973;51.460;7.008;2023-07-28T06:37:54;20.00;99.90
27534;DHT22;14973;51.460;7.008;2023-07-28T06:40:20;20.00;99.90
27534;DHT22;14973;51.460;7.008;2023-07-28T06:42:45;20.00;99.90
27534;DHT22;14973;51.460;7.008;2023-07-28T06:45:11;20.10;99.90
27534;DHT22;14973;51.460;7.008;2023-07-28T06:47:37;20.00;99.90
27534;DHT22;14973;51.460;7.008;2023-07-28T06:50:03;20.10;99.90
27534;DHT22;14973;51.460;7.008;2023-07-28T06:52:30;20.10;99.90
27534;DHT22;14973;51.460;7.008;2023-07-28T06:54:56;20.10;99.90
27534;DHT22;14973;51.460;7.008;2023-07-28T06:57:21;20.20;99.90
27534;DHT22;14973;51.460;7.008;2023-07-28T06:59:48;20.10;99.90
27534;DHT22;14973;51.460;7.008;2023-07-28T07:02:13;20.20;99.90
27534;DHT22;14973;51.460;7.008;2023-07-28T07:04:39;20.20;99.90
27534;DHT22;14973;51.460;7.008;2023-07-28T07:07:05;20.20;99.90
27534;DHT22;14973;51.460;7.008;2023-07-28T07:09:30;20.20;99.90
27534;DHT22;14973;51.460;7.008;2023-07-28T07:11:56;20.40;99.90
27534;DHT22;14973;51.460;7.008;2023-07-28T07:14:21;20.60;99.90
27534;DHT22;14973;51.460;7.008;2023-07-28T07:16:48;20.80;99.90
27534;DHT22;14973;51.460;7.008;2023-07-28T07:19:13;20.90;99.90
27534;DHT22;14973;51.460;7.008;2023-07-28T07:21:41;20.90;99.90
27534;DHT22;14973;51.460;7.008;2023-07-28T07:24:07;20.80;99.90
27534;DHT22;14973;51.460;7.008;2023-07-28T07:26:32;20.90;99.90
27534;DHT22;14973;51.460;7.008;2023-07-28T07:28:58;21.10;99.90
27534;DHT22;14973;51.460;7.008;2023-07-28T07:31:24;21.00;99.90
27534;DHT22;14973;51.460;7.008;2023-07-28T07:33:50;21.30;99.90
27534;DHT22;14973;51.460;7.008;2023-07-28T07:36:17;21.30;99.90
27534;DHT22;14973;51.460;7.008;2023-07-28T07:38:43;21.40;99.90
27534;DHT22;14973;51.460;7.008;2023-07-28T07:41:13;21.40;99.90
27534;DHT22;14973;51.460;7.008;2023-07-28T07:43:41;21.60;99.90
27534;DHT22;14973;51.460;7.008;2023-07-28T07:46:07;21.80;99.90
27534;DHT22;14973;51.460;7.008;2023-07-28T07:48:33;22.30;99.90
27534;DHT22;14973;51.460;7.008;2023-07-28T07:50:59;22.40;98.20
27534;DHT22;14973;51.460;7.008;2023-07-28T07:53:24;22.50;96.40
27534;DHT22;14973;51.460;7.008;2023-07-28T07:55:50;22.60;92.70
27534;DHT22;14973;51.460;7.008;2023-07-28T07:58:15;22.50;92.20
27534;DHT22;14973;51.460;7.008;2023-07-28T08:00:41;22.40;94.40
27534;DHT22;14973;51.460;7.008;2023-07-28T08:03:06;22.70;95.50
27534;DHT22;14973;51.460;7.008;2023-07-28T08:05:32;22.90;90.30
27534;DHT22;14973;51.460;7.008;2023-07-28T08:07:57;23.20;77.10
27534;DHT22;14973;51.460;7.008;2023-07-28T08:10:23;23.10;74.10
27534;DHT22;14973;51.460;7.008;2023-07-28T08:12:49;22.80;87.10
27534;DHT22;14973;51.460;7.008;2023-07-28T08:15:15;22.70;86.90
27534;DHT22;14973;51.460;7.008;2023-07-28T08:17:40;22.60;90.60
27534;DHT22;14973;51.460;7.008;2023-07-28T08:20:09;22.30;96.10
27534;DHT22;14973;51.460;7.008;2023-07-28T08:22:35;22.20;98.20
27534;DHT22;14973;51.460;7.008;2023-07-28T08:25:00;22.10;99.90
27534;DHT22;14973;51.460;7.008;2023-07-28T08:27:26;22.10;99.90
27534;DHT22;14973;51.460;7.008;2023-07-28T08:29:51;22.30;99.90
27534;DHT22;14973;51.460;7.008;2023-07-28T08:32:17;22.30;95.50
27534;DHT22;14973;51.460;7.008;2023-07-28T08:34:42;22.50;94.50
27534;DHT22;14973;51.460;7.008;2023-07-28T08:37:08;22.60;96.40
27534;DHT22;14973;51.460;7.008;2023-07-28T08:39:34;22.60;98.70
27534;DHT22;14973;51.460;7.008;2023-07-28T08:42:03;22.70;93.70
27534;DHT22;14973;51.460;7.008;2023-07-28T08:44:31;22.90;82.70
27534;DHT22;14973;51.460;7.008;2023-07-28T08:47:01;23.20;82.30
27534;DHT22;14973;51.460;7.008;2023-07-28T08:49:28;23.80;73.20
27534;DHT22;14973;51.460;7.008;2023-07-28T08:52:00;24.40;49.60
27534;DHT22;14973;51.460;7.008;2023-07-28T08:54:27;24.70;29.00
27534;DHT22;14973;51.460;7.008;2023-07-28T08:56:52;24.60;35.00
27534;DHT22;14973;51.460;7.008;2023-07-28T08:59:22;24.20;1.00
27534;DHT22;14973;51.460;7.008;2023-07-28T09:01:50;23.70;1.00
27534;DHT22;14973;51.460;7.008;2023-07-28T09:04:15;23.40;8.10
27534;DHT22;14973;51.460;7.008;2023-07-28T09:06:45;22.90;31.20
27534;DHT22;14973;51.460;7.008;2023-07-28T09:09:10;23.20;27.70
27534;DHT22;14973;51.460;7.008;2023-07-28T09:11:50;23.60;22.00
27534;DHT22;14973;51.460;7.008;2023-07-28T09:14:18;23.70;1.00
27534;DHT22;14973;51.460;7.008;2023-07-28T09:16:45;24.10;1.00
27534;DHT22;14973;51.460;7.008;2023-07-28T09:19:11;24.90;1.00
27534;DHT22;14973;51.460;7.008;2023-07-28T09:21:42;25.00;1.00
27534;DHT22;14973;51.460;7.008;2023-07-28T09:24:11;24.80;1.00
27534;DHT22;14973;51.460;7.008;2023-07-28T09:26:47;24.90;99.90
27534;DHT22;14973;51.460;7.008;2023-07-28T09:29:17;24.80;99.90
27534;DHT22;14973;51.460;7.008;2023-07-28T09:31:47;24.50;1.00
27534;DHT22;14973;51.460;7.008;2023-07-28T09:34:26;24.50;1.00
27534;DHT22;14973;51.460;7.008;2023-07-28T09:36:54;24.40;1.00
27534;DHT22;14973;51.460;7.008;2023-07-28T09:39:20;24.10;1.00
27534;DHT22;14973;51.460;7.008;2023-07-28T09:41:47;24.30;1.00
27534;DHT22;14973;51.460;7.008;2023-07-28T09:44:13;24.30;1.00
27534;DHT22;14973;51.460;7.008;2023-07-28T09:46:50;24.00;1.00
27534;DHT22;14973;51.460;7.008;2023-07-28T09:49:22;24.70;1.00
27534;DHT22;14973;51.460;7.008;2023-07-28T09:51:54;26.10;99.90
27534;DHT22;14973;51.460;7.008;2023-07-28T09:54:28;27.10;1.00
27534;DHT22;14973;51.460;7.008;2023-07-28T09:56:56;27.70;99.90
27534;DHT22;14973;51.460;7.008;2023-07-28T09:59:38;27.60;99.90
27534;DHT22;14973;51.460;7.008;2023-07-28T10:02:04;27.40;99.90
27534;DHT22;14973;51.460;7.008;2023-07-28T10:04:31;27.00;1.00
27534;DHT22;14973;51.460;7.008;2023-07-28T10:06:57;27.10;1.00
27534;DHT22;14973;51.460;7.008;2023-07-28T10:09:27;26.80;1.00
27534;DHT22;14973;51.460;7.008;2023-07-28T10:11:54;26.10;87.40
27534;DHT22;14973;51.460;7.008;2023-07-28T10:14:37;25.40;1.00
27534;DHT22;14973;51.460;7.008;2023-07-28T10:17:04;24.90;1.00
27534;DHT22;14973;51.460;7.008;2023-07-28T10:19:35;24.70;99.90
27534;DHT22;14973;51.460;7.008;2023-07-28T10:22:02;24.60;1.00
27534;DHT22;14973;51.460;7.008;2023-07-28T10:24:53;24.80;99.90
27534;DHT22;14973;51.460;7.008;2023-07-28T10:27:35;25.00;99.90
27534;DHT22;14973;51.460;7.008;2023-07-28T10:30:12;25.30;99.90
27534;DHT22;14973;51.460;7.008;2023-07-28T10:32:40;25.60;1.00
27534;DHT22;14973;51.460;7.008;2023-07-28T10:37:37;25.60;99.90
27534;DHT22;14973;51.460;7.008;2023-07-28T10:40:33;25.60;99.90
27534;DHT22;14973;51.460;7.008;2023-07-28T10:43:03;26.00;5.90
27534;DHT22;14973;51.460;7.008;2023-07-28T10:45:31;26.30;99.90
27534;DHT22;14973;51.460;7.008;2023-07-28T10:47:59;26.60;99.90
27534;DHT22;14973;51.460;7.008;2023-07-28T10:50:30;26.80;1.00
27534;DHT22;14973;51.460;7.008;2023-07-28T10:52:56;27.00;1.00
27534;DHT22;14973;51.460;7.008;2023-07-28T10:55:24;26.80;99.90
27534;DHT22;14973;51.460;7.008;2023-07-28T10:57:51;26.70;1.00
27534;DHT22;14973;51.460;7.008;2023-07-28T11:00:21;26.30;99.90
27534;DHT22;14973;51.460;7.008;2023-07-28T11:02:52;26.50;99.90
27534;DHT22;14973;51.460;7.008;2023-07-28T11:05:29;26.80;1.00
27534;DHT22;14973;51.460;7.008;2023-07-28T11:07:59;27.20;99.90
27534;DHT22;14973;51.460;7.008;2023-07-28T11:10:28;27.30;99.90
27534;DHT22;14973;51.460;7.008;2023-07-28T11:12:58;27.10;99.90
27534;DHT22;14973;51.460;7.008;2023-07-28T11:15:25;27.30;99.90
27534;DHT22;14973;51.460;7.008;2023-07-28T11:17:51;27.40;99.90
27534;DHT22;14973;51.460;7.008;2023-07-28T11:20:25;27.20;99.90
27534;DHT22;14973;51.460;7.008;2023-07-28T11:22:58;26.50;99.90
27534;DHT22;14973;51.460;7.008;2023-07-28T11:25:26;26.20;1.00
27534;DHT22;14973;51.460;7.008;2023-07-28T11:27:52;26.20;92.00
27534;DHT22;14973;51.460;7.008;2023-07-28T11:30:19;26.00;6.90
27534;DHT22;14973;51.460;7.008;2023-07-28T11:32:49;26.30;1.00
27534;DHT22;14973;51.460;7.008;2023-07-28T11:35:17;26.70;99.90
27534;DHT22;14973;51.460;7.008;2023-07-28T11:37:45;26.70;1.00
27534;DHT22;14973;51.460;7.008;2023-07-28T11:40:15;26.10;1.00
27534;DHT22;14973;51.460;7.008;2023-07-28T11:42:44;25.80;1.00
27534;DHT22;14973;51.460;7.008;2023-07-28T11:45:12;25.80;99.90
27534;DHT22;14973;51.460;7.008;2023-07-28T11:47:38;25.70;1.00
27534;DHT22;14973;51.460;7.008;2023-07-28T11:50:04;25.70;99.90
27534;DHT22;14973;51.460;7.008;2023-07-28T11:52:31;25.40;99.90
27534;DHT22;14973;51.460;7.008;2023-07-28T11:54:59;24.90;99.90
27534;DHT22;14973;51.460;7.008;2023-07-28T11:57:26;24.40;1.00
27534;DHT22;14973;51.460;7.008;2023-07-28T11:59:52;23.80;1.00
27534;DHT22;14973;51.460;7.008;2023-07-28T12:02:25;23.30;45.50
27534;DHT22;14973;51.460;7.008;2023-07-28T12:04:51;23.00;79.80
27534;DHT22;14973;51.460;7.008;2023-07-28T12:07:18;22.60;99.90
27534;DHT22;14973;51.460;7.008;2023-07-28T12:12:21;22.50;99.90
27534;DHT22;14973;51.460;7.008;2023-07-28T12:14:47;23.00;99.90
27534;DHT22;14973;51.460;7.008;2023-07-28T12:17:25;23.40;99.40
27534;DHT22;14973;51.460;7.008;2023-07-28T12:20:06;23.80;94.60
27534;DHT22;14973;51.460;7.008;2023-07-28T12:22:44;24.00;53.90
27534;DHT22;14973;51.460;7.008;2023-07-28T12:25:10;24.10;54.10
27534;DHT22;14973;51.460;7.008;2023-07-28T12:27:36;24.20;52.80
27534;DHT22;14973;51.460;7.008;2023-07-28T12:30:03;24.40;44.10
27534;DHT22;14973;51.460;7.008;2023-07-28T12:32:29;24.40;27.10
27534;DHT22;14973;51.460;7.008;2023-07-28T12:34:54;24.50;19.20
27534;DHT22;14973;51.460;7.008;2023-07-28T12:37:20;24.70;11.10
27534;DHT22;14973;51.460;7.008;2023-07-28T12:39:47;24.70;1.00
27534;DHT22;14973;51.460;7.008;2023-07-28T12:42:13;24.80;1.00
27534;DHT22;14973;51.460;7.008;2023-07-28T12:44:41;24.90;1.00
27534;DHT22;14973;51.460;7.008;2023-07-28T12:47:07;25.00;99.90
27534;DHT22;14973;51.460;7.008;2023-07-28T12:49:32;25.30;99.90
27534;DHT22;14973;51.460;7.008;2023-07-28T12:52:00;25.30;99.90
27534;DHT22;14973;51.460;7.008;2023-07-28T12:54:26;25.60;99.90
27534;DHT22;14973;51.460;7.008;2023-07-28T12:56:56;25.70;1.00
27534;DHT22;14973;51.460;7.008;2023-07-28T12:59:21;25.70;1.00
27534;DHT22;14973;51.460;7.008;2023-07-28T13:01:47;25.60;99.90
27534;DHT22;14973;51.460;7.008;2023-07-28T13:04:13;25.50;99.90
27534;DHT22;14973;51.460;7.008;2023-07-28T13:06:38;25.40;1.00
27534;DHT22;14973;51.460;7.008;2023-07-28T13:09:06;25.40;1.00
27534;DHT22;14973;51.460;7.008;2023-07-28T13:11:33;25.30;99.90
27534;DHT22;14973;51.460;7.008;2023-07-28T13:13:59;25.40;99.90
27534;DHT22;14973;51.460;7.008;2023-07-28T13:16:24;25.50;99.90
27534;DHT22;14973;51.460;7.008;2023-07-28T13:18:50;25.60;99.90
27534;DHT22;14973;51.460;7.008;2023-07-28T13:21:16;25.70;1.00
27534;DHT22;14973;51.460;7.008;2023-07-28T13:23:41;26.00;99.90
27534;DHT22;14973;51.460;7.008;2023-07-28T13:26:07;26.30;99.90
27534;DHT22;14973;51.460;7.008;2023-07-28T13:28:33;26.30;1.00
27534;DHT22;14973;51.460;7.008;2023-07-28T13:31:01;26.30;1.00
27534;DHT22;14973;51.460;7.008;2023-07-28T13:33:27;26.40;99.90
27534;DHT22;14973;51.460;7.008;2023-07-28T13:35:52;26.60;80.50
27534;DHT22;14973;51.460;7.008;2023-07-28T13:38:18;26.90;27.40
27534;DHT22;14973;51.460;7.008;2023-07-28T13:40:43;27.20;1.00
27534;DHT22;14973;51.460;7.008;2023-07-28T13:43:09;26.80;1.00
27534;DHT22;14973;51.460;7.008;2023-07-28T13:45:34;26.80;1.00
27534;DHT22;14973;51.460;7.008;2023-07-28T13:48:00;26.80;1.00
27534;DHT22;14973;51.460;7.008;2023-07-28T13:50:25;26.70;1.00
27534;DHT22;14973;51.460;7.008;2023-07-28T13:52:51;26.60;1.00
27534;DHT22;14973;51.460;7.008;2023-07-28T13:55:16;26.70;1.00
27534;DHT22;14973;51.460;7.008;2023-07-28T13:57:43;26.80;1.00
27534;DHT22;14973;51.460;7.008;2023-07-28T14:00:09;26.70;1.00
27534;DHT22;14973;51.460;7.008;2023-07-28T14:02:39;26.60;58.70
27534;DHT22;14973;51.460;7.008;2023-07-28T14:05:05;26.40;99.90
27534;DHT22;14973;51.460;7.008;2023-07-28T14:07:32;26.10;1.00
27534;DHT22;14973;51.460;7.008;2023-07-28T14:09:57;25.90;99.90
27534;DHT22;14973;51.460;7.008;2023-07-28T14:12:23;25.80;1.00
27534;DHT22;14973;51.460;7.008;2023-07-28T14:14:48;26.00;99.90
27534;DHT22;14973;51.460;7.008;2023-07-28T14:17:15;26.00;1.00
27534;DHT22;14973;51.460;7.008;2023-07-28T14:19:41;26.00;99.90
27534;DHT22;14973;51.460;7.008;2023-07-28T14:22:07;26.00;99.90
27534;DHT22;14973;51.460;7.008;2023-07-28T14:24:33;26.10;99.90
27534;DHT22;14973;51.460;7.008;2023-07-28T14:26:58;26.20;17.10
27534;DHT22;14973;51.460;7.008;2023-07-28T14:29:24;26.00;52.70
27534;DHT22;14973;51.460;7.008;2023-07-28T14:31:49;26.10;99.90
27534;DHT22;14973;51.460;7.008;2023-07-28T14:34:15;26.20;1.00
27534;DHT22;14973;51.460;7.008;2023-07-28T14:36:41;26.10;1.00
27534;DHT22;14973;51.460;7.008;2023-07-28T14:39:06;25.90;99.90
27534;DHT22;14973;51.460;7.008;2023-07-28T14:41:32;25.60;99.90
27534;DHT22;14973;51.460;7.008;2023-07-28T14:43:58;25.80;76.40
27534;DHT22;14973;51.460;7.008;2023-07-28T14:46:24;25.80;99.90
27534;DHT22;14973;51.460;7.008;2023-07-28T14:48:51;25.70;24.10
27534;DHT22;14973;51.460;7.008;2023-07-28T14:51:17;25.60;18.50
27534;DHT22;14973;51.460;7.008;2023-07-28T14:53:43;25.40;1.00
27534;DHT22;14973;51.460;7.008;2023-07-28T14:56:10;25.50;99.90
27534;DHT22;14973;51.460;7.008;2023-07-28T14:58:36;25.20;99.90
27534;DHT22;14973;51.460;7.008;2023-07-28T15:01:02;25.10;1.00
27534;DHT22;14973;51.460;7.008;2023-07-28T15:03:30;24.90;99.90
27534;DHT22;14973;51.460;7.008;2023-07-28T15:05:58;25.10;99.90
27534;DHT22;14973;51.460;7.008;2023-07-28T15:08:24;25.10;99.90
27534;DHT22;14973;51.460;7.008;2023-07-28T15:10:49;25.20;99.90
27534;DHT22;14973;51.460;7.008;2023-07-28T15:13:15;25.20;99.90
27534;DHT22;14973;51.460;7.008;2023-07-28T15:15:40;25.10;1.00
27534;DHT22;14973;51.460;7.008;2023-07-28T15:18:06;24.80;36.20
27534;DHT22;14973;51.460;7.008;2023-07-28T15:20:33;25.00;1.00
27534;DHT22;14973;51.460;7.008;2023-07-28T15:22:59;24.70;1.00
27534;DHT22;14973;51.460;7.008;2023-07-28T15:25:25;24.50;99.90
27534;DHT22;14973;51.460;7.008;2023-07-28T15:27:51;24.30;1.00
27534;DHT22;14973;51.460;7.008;2023-07-28T15:30:17;24.20;1.00
27534;DHT22;14973;51.460;7.008;2023-07-28T15:32:42;24.10;1.00
27534;DHT22;14973;51.460;7.008;2023-07-28T15:35:08;24.10;1.00